createdAt,value
2023-05-14T00:01:05.399Z,71.78
2023-05-14T00:03:33.985Z,72.79
2023-05-14T00:06:03.187Z,72.89
2023-05-14T00:08:31.516Z,72.62
2023-05-14T00:11:00.241Z,72.65
2023-05-14T00:13:28.710Z,72.15
2023-05-14T00:15:57.249Z,71.62
2023-05-14T00:18:25.958Z,71.95
2023-05-14T00:20:55.095Z,73.08
2023-05-14T00:23:23.941Z,73.18
2023-05-14T00:25:52.323Z,73.16
2023-05-14T00:28:22.173Z,72.06
2023-05-14T00:30:51.074Z,71.58
2023-05-14T00:33:19.484Z,71.62
2023-05-14T00:35:47.845Z,71.76
2023-05-14T00:38:19.705Z,71.63
2023-05-14T00:40:51.959Z,71.46
2023-05-14T00:43:21.864Z,71.22
2023-05-14T00:45:52.013Z,71.43
2023-05-14T00:48:21.616Z,71.68
2023-05-14T00:50:51.308Z,71.68
2023-05-14T00:53:20.904Z,71.62
2023-05-14T00:55:50.549Z,71.84
2023-05-14T00:58:19.970Z,72.01
2023-05-14T01:00:48.486Z,71.78
2023-05-14T01:03:16.943Z,73.07
2023-05-14T01:06:10.207Z,73.93
2023-05-14T01:08:41.376Z,73.84
2023-05-14T01:11:22.697Z,74.05
2023-05-14T01:14:03.059Z,73.26
2023-05-14T01:16:34.285Z,72.95
2023-05-14T01:19:06.320Z,74.20
2023-05-14T01:21:38.674Z,73.35
2023-05-14T01:24:08.506Z,74.09
2023-05-14T01:26:37.674Z,74.39
2023-05-14T01:29:16.718Z,74.07
2023-05-14T01:31:47.599Z,73.52
2023-05-14T01:34:16.525Z,74.17
2023-05-14T01:36:45.782Z,74.36
2023-05-14T01:39:15.548Z,73.74
2023-05-14T01:41:45.722Z,73.32
2023-05-14T01:44:14.955Z,73.03
2023-05-14T01:46:43.208Z,73.17
2023-05-14T01:49:11.385Z,73.03
2023-05-14T01:51:39.866Z,72.81
2023-05-14T01:54:08.689Z,74.60
2023-05-14T01:56:37.071Z,75.38
2023-05-14T01:59:05.526Z,75.69
2023-05-14T02:01:34.210Z,75.63
2023-05-14T02:04:02.573Z,75.97
2023-05-14T02:06:32.423Z,77.66
2023-05-14T02:09:00.619Z,77.80
2023-05-14T02:11:28.875Z,77.35
2023-05-14T02:13:57.246Z,77.05
2023-05-14T02:16:26.248Z,76.91
2023-05-14T02:18:55.123Z,77.98
2023-05-14T02:21:24.502Z,78.92
2023-05-14T02:23:52.847Z,78.89
2023-05-14T02:26:21.663Z,77.68
2023-05-14T02:28:49.997Z,78.99
2023-05-14T02:31:19.643Z,79.19
2023-05-14T02:33:48.214Z,79.04
2023-05-14T02:36:16.786Z,79.26
2023-05-14T02:38:45.521Z,79.61
2023-05-14T02:41:13.808Z,79.44
2023-05-14T02:43:42.006Z,79.40
2023-05-14T02:46:12.356Z,78.67
2023-05-14T02:48:41.293Z,77.88
2023-05-14T02:51:09.687Z,77.27
2023-05-14T02:53:38.031Z,76.73
2023-05-14T02:56:06.671Z,76.47
2023-05-14T02:58:34.970Z,76.21
2023-05-14T03:01:03.617Z,76.06
2023-05-14T03:03:33.236Z,75.99
2023-05-14T03:06:02.138Z,75.97
2023-05-14T03:08:30.520Z,76.09
2023-05-14T03:10:58.899Z,76.17
2023-05-14T03:13:27.196Z,76.16
2023-05-14T03:15:55.925Z,76.17
2023-05-14T03:18:24.285Z,75.85
2023-05-14T03:20:52.470Z,75.58
2023-05-14T03:23:21.115Z,75.76
2023-05-14T03:25:49.498Z,76.94
2023-05-14T03:28:17.832Z,76.80
2023-05-14T03:30:46.264Z,76.15
2023-05-14T03:33:14.698Z,75.80
2023-05-14T03:35:42.942Z,75.89
2023-05-14T03:38:11.244Z,76.05
2023-05-14T03:40:39.639Z,76.46
2023-05-14T03:43:07.980Z,76.87
2023-05-14T03:45:36.313Z,76.34
2023-05-14T03:48:05.074Z,75.98
2023-05-14T03:50:34.325Z,75.54
2023-05-14T03:53:02.525Z,75.19
2023-05-14T03:55:31.420Z,75.14
2023-05-14T03:57:59.852Z,75.52
2023-05-14T04:00:29.303Z,75.66
2023-05-14T04:02:57.749Z,75.01
2023-05-14T04:05:26.274Z,74.96
2023-05-14T04:07:54.684Z,75.19
2023-05-14T04:10:23.395Z,74.81
2023-05-14T04:12:51.998Z,74.62
2023-05-14T04:15:20.480Z,74.64
2023-05-14T04:17:48.938Z,74.38
2023-05-14T04:20:17.493Z,74.51
2023-05-14T04:22:45.780Z,74.53
2023-05-14T04:25:14.200Z,74.33
2023-05-14T04:27:42.475Z,74.33
2023-05-14T04:30:11.374Z,74.15
2023-05-14T04:36:18.074Z,74.54
2023-05-14T04:38:46.550Z,74.36
2023-05-14T04:41:15.058Z,73.93
2023-05-14T04:43:43.498Z,73.65
2023-05-14T04:46:11.910Z,73.79
2023-05-14T04:48:40.400Z,74.12
2023-05-14T04:51:08.822Z,74.27
2023-05-14T04:53:37.295Z,74.25
2023-05-14T04:56:05.746Z,73.90
2023-05-14T04:58:35.429Z,73.78
2023-05-14T05:01:06.342Z,73.95
2023-05-14T05:03:34.949Z,73.75
2023-05-14T05:06:03.719Z,73.46
2023-05-14T05:08:31.973Z,73.25
2023-05-14T05:11:00.507Z,73.36
2023-05-14T05:13:28.784Z,73.25
2023-05-14T05:15:57.121Z,73.05
2023-05-14T05:18:25.655Z,72.86
2023-05-14T05:20:53.968Z,72.20
2023-05-14T05:23:22.221Z,71.78
2023-05-14T05:25:53.829Z,71.63
2023-05-14T05:28:23.039Z,71.65
2023-05-14T05:30:51.456Z,71.36
2023-05-14T05:33:19.943Z,71.01
2023-05-14T05:35:50.217Z,70.78
2023-05-14T05:38:18.515Z,70.69
2023-05-14T05:40:46.970Z,70.63
2023-05-14T05:43:15.669Z,70.39
2023-05-14T05:45:44.288Z,70.09
2023-05-14T05:48:12.814Z,69.88
2023-05-14T05:50:41.144Z,69.49
2023-05-14T05:53:09.405Z,69.17
2023-05-14T05:55:37.832Z,68.93
2023-05-14T05:58:06.023Z,68.65
2023-05-14T06:00:34.588Z,68.31
2023-05-14T06:03:02.817Z,67.68
2023-05-14T06:05:30.955Z,67.18
2023-05-14T06:07:59.107Z,66.89
2023-05-14T06:10:27.394Z,66.48
2023-05-14T06:12:55.914Z,66.00
2023-05-14T06:15:24.278Z,65.53
2023-05-14T06:17:52.656Z,64.62
2023-05-14T06:20:21.322Z,64.03
2023-05-14T06:22:49.655Z,62.19
2023-05-14T06:25:18.109Z,61.65
2023-05-14T06:27:46.429Z,62.04
2023-05-14T06:30:15.404Z,61.39
2023-05-14T06:32:43.816Z,61.43
2023-05-14T06:35:12.201Z,61.23
2023-05-14T06:37:40.532Z,61.08
2023-05-14T06:40:09.299Z,59.86
2023-05-14T06:42:38.757Z,60.30
2023-05-14T06:45:07.878Z,59.30
2023-05-14T06:47:36.274Z,59.71
2023-05-14T06:50:04.913Z,60.09
2023-05-14T06:52:33.730Z,60.53
2023-05-14T06:55:02.098Z,60.25
2023-05-14T06:57:30.534Z,59.83
2023-05-14T06:59:59.279Z,58.67
2023-05-14T07:02:27.843Z,58.62
2023-05-14T07:04:56.332Z,58.93
2023-05-14T07:07:24.738Z,58.63
2023-05-14T07:09:53.079Z,59.05
2023-05-14T07:12:21.352Z,58.07
2023-05-14T07:14:50.341Z,57.36
2023-05-14T07:17:18.715Z,56.28
2023-05-14T07:19:47.472Z,56.75
2023-05-14T07:22:15.895Z,56.16
2023-05-14T07:24:44.212Z,55.69
2023-05-14T07:27:12.594Z,54.24
2023-05-14T07:29:41.064Z,55.15
2023-05-14T07:32:09.821Z,55.49
2023-05-14T07:34:38.042Z,55.09
2023-05-14T07:37:06.177Z,54.11
2023-05-14T07:39:34.560Z,55.90
2023-05-14T07:42:02.844Z,55.94
2023-05-14T07:44:31.140Z,55.35
2023-05-14T07:46:59.597Z,55.03
2023-05-14T07:49:28.021Z,54.50
2023-05-14T07:51:56.406Z,54.05
2023-05-14T07:54:24.975Z,53.74
2023-05-14T07:56:53.252Z,54.15
2023-05-14T07:59:21.661Z,53.66
2023-05-14T08:01:49.974Z,53.00
2023-05-14T08:04:18.434Z,52.60
2023-05-14T08:06:46.850Z,50.59
2023-05-14T08:09:15.489Z,49.69
2023-05-14T08:11:44.883Z,48.68
2023-05-14T08:14:13.261Z,48.64
2023-05-14T08:16:41.662Z,48.32
2023-05-14T08:19:10.256Z,48.96
2023-05-14T08:21:38.433Z,49.33
2023-05-14T08:24:06.869Z,49.20
2023-05-14T08:26:35.256Z,47.82
2023-05-14T08:29:03.497Z,46.19
2023-05-14T08:31:31.930Z,47.12
2023-05-14T08:34:00.377Z,47.15
2023-05-14T08:36:28.684Z,46.48
2023-05-14T08:38:56.811Z,45.77
2023-05-14T08:41:26.941Z,46.20
2023-05-14T08:44:01.284Z,46.16
2023-05-14T08:46:32.252Z,45.07
2023-05-14T08:49:09.235Z,46.02
2023-05-14T08:51:38.353Z,44.10
2023-05-14T08:54:06.870Z,43.46
2023-05-14T08:56:36.134Z,41.65
2023-05-14T08:59:05.112Z,42.12
2023-05-14T09:01:33.865Z,42.89
2023-05-14T09:04:07.278Z,42.18
2023-05-14T09:06:40.158Z,42.44
2023-05-14T09:09:08.489Z,40.62
2023-05-14T09:11:47.309Z,40.97
2023-05-14T09:14:16.215Z,41.28
2023-05-14T09:16:46.344Z,39.38
2023-05-14T09:19:19.229Z,40.07
2023-05-14T09:21:49.231Z,39.61
2023-05-14T09:24:21.641Z,37.88
2023-05-14T09:26:55.125Z,38.80
2023-05-14T09:29:27.998Z,37.14
2023-05-14T09:31:57.626Z,38.72
2023-05-14T09:34:31.148Z,37.27
2023-05-14T09:37:02.608Z,37.25
2023-05-14T09:39:31.396Z,33.08
2023-05-14T09:41:59.972Z,33.84
2023-05-14T09:44:28.477Z,35.63
2023-05-14T09:46:56.922Z,33.91
2023-05-14T09:49:25.481Z,33.09
2023-05-14T09:51:53.793Z,34.80
2023-05-14T09:54:22.059Z,33.87
2023-05-14T09:56:50.434Z,33.97
2023-05-14T09:59:18.804Z,31.84
2023-05-14T10:01:47.826Z,33.02
2023-05-14T10:04:16.194Z,33.82
2023-05-14T10:06:51.451Z,32.36
2023-05-14T10:09:23.396Z,33.32
2023-05-14T10:11:54.098Z,33.87
2023-05-14T10:14:41.220Z,32.52
2023-05-14T10:17:18.304Z,31.20
2023-05-14T10:19:54.057Z,31.80
2023-05-14T10:22:31.560Z,31.81
2023-05-14T10:25:00.796Z,31.55
2023-05-14T10:27:29.539Z,31.45
2023-05-14T10:29:58.288Z,30.12
2023-05-14T10:32:26.734Z,30.75
2023-05-14T10:34:55.010Z,29.25
2023-05-14T10:37:26.690Z,29.96
2023-05-14T10:39:59.691Z,30.17
2023-05-14T10:42:33.661Z,29.67
2023-05-14T10:45:10.555Z,30.50
2023-05-14T10:47:48.929Z,30.24
2023-05-14T10:50:18.732Z,30.56
2023-05-14T10:52:47.133Z,30.02
2023-05-14T10:55:17.249Z,30.83
2023-05-14T10:57:46.858Z,31.36
2023-05-14T11:00:15.673Z,30.43
2023-05-14T11:02:45.257Z,29.02
2023-05-14T11:05:17.916Z,28.65
2023-05-14T11:07:48.895Z,28.47
2023-05-14T11:10:26.160Z,28.60
2023-05-14T11:12:54.767Z,28.82
2023-05-14T11:15:26.236Z,28.50
2023-05-14T11:17:54.952Z,28.75
2023-05-14T11:20:23.651Z,28.59
2023-05-14T11:22:52.090Z,29.09
2023-05-14T11:25:21.916Z,29.35
2023-05-14T11:27:50.476Z,28.83
2023-05-14T11:30:20.214Z,28.60
2023-05-14T11:32:49.636Z,28.67
2023-05-14T11:35:18.438Z,29.25
2023-05-14T11:37:52.561Z,28.52
2023-05-14T11:40:21.331Z,28.12
2023-05-14T11:42:52.431Z,28.55
2023-05-14T11:45:29.878Z,28.39
2023-05-14T11:47:58.263Z,27.74
2023-05-14T11:50:26.769Z,29.13
2023-05-14T11:53:00.646Z,28.64
2023-05-14T11:55:30.513Z,28.92
2023-05-14T11:57:58.965Z,27.27
2023-05-14T12:00:27.352Z,26.71
2023-05-14T12:02:55.675Z,27.42
2023-05-14T12:05:23.982Z,27.34
2023-05-14T12:07:52.240Z,26.94
2023-05-14T12:10:20.601Z,27.44
2023-05-14T12:12:49.046Z,27.16
2023-05-14T12:15:17.512Z,27.62
2023-05-14T12:17:52.285Z,26.42
2023-05-14T12:20:20.742Z,26.52
2023-05-14T12:22:49.353Z,27.61
2023-05-14T12:25:17.889Z,28.11
2023-05-14T12:27:47.252Z,27.56
2023-05-14T12:32:47.262Z,26.71
2023-05-14T12:35:15.583Z,27.36
2023-05-14T12:37:43.805Z,27.80
2023-05-14T12:40:12.230Z,28.29
2023-05-14T12:42:40.512Z,28.03
2023-05-14T12:45:09.099Z,27.64
2023-05-14T12:47:37.723Z,27.87
2023-05-14T12:50:06.999Z,27.36
2023-05-14T12:55:07.923Z,26.38
2023-05-14T12:57:36.739Z,26.84
2023-05-14T13:00:13.019Z,26.95
2023-05-14T13:02:43.852Z,27.46
2023-05-14T13:05:12.878Z,27.41
2023-05-14T13:07:41.824Z,27.84
2023-05-14T13:10:12.277Z,26.27
2023-05-14T13:12:40.655Z,26.77
2023-05-14T13:15:09.802Z,27.32
2023-05-14T13:17:38.176Z,27.32
2023-05-14T13:20:07.410Z,27.36
2023-05-14T13:22:35.671Z,27.46
2023-05-14T13:25:04.517Z,26.33
2023-05-14T13:27:33.890Z,27.17
2023-05-14T13:30:02.357Z,27.38
2023-05-14T13:32:31.134Z,25.67
2023-05-14T13:34:59.389Z,25.08
2023-05-14T13:37:28.569Z,24.44
2023-05-14T13:39:58.302Z,23.89
2023-05-14T13:42:27.266Z,23.38
2023-05-14T13:44:56.606Z,24.22
2023-05-14T13:47:26.168Z,24.55
2023-05-14T13:49:55.101Z,24.76
2023-05-14T13:52:23.377Z,24.42
2023-05-14T13:54:51.719Z,23.65
2023-05-14T13:57:21.676Z,24.14
2023-05-14T13:59:50.042Z,23.96
2023-05-14T14:02:18.360Z,24.23
2023-05-14T14:04:49.839Z,23.80
2023-05-14T14:07:18.047Z,23.64
2023-05-14T14:09:46.623Z,24.39
2023-05-14T14:12:17.670Z,24.52
2023-05-14T14:14:46.162Z,24.72
2023-05-14T14:17:14.311Z,24.76
2023-05-14T14:19:44.019Z,24.08
2023-05-14T14:22:17.719Z,23.98
2023-05-14T14:24:45.985Z,24.68
2023-05-14T14:27:14.117Z,24.88
2023-05-14T14:29:42.399Z,24.65
2023-05-14T14:32:10.748Z,25.06
2023-05-14T14:34:39.137Z,25.32
2023-05-14T14:37:07.433Z,25.64
2023-05-14T14:39:35.732Z,25.73
2023-05-14T14:42:04.606Z,25.35
2023-05-14T14:44:33.058Z,24.97
2023-05-14T14:47:03.388Z,25.07
2023-05-14T14:49:32.771Z,25.45
2023-05-14T14:52:01.170Z,25.20
2023-05-14T14:54:29.646Z,25.43
2023-05-14T14:56:57.969Z,26.08
2023-05-14T14:59:26.154Z,26.27
2023-05-14T15:01:54.579Z,26.61
2023-05-14T15:04:23.169Z,26.55
2023-05-14T15:06:53.548Z,26.80
2023-05-14T15:09:21.854Z,27.29
2023-05-14T15:11:50.413Z,26.71
2023-05-14T15:14:18.621Z,26.76
2023-05-14T15:16:48.828Z,27.14
2023-05-14T15:19:20.551Z,27.30
2023-05-14T15:21:49.273Z,27.08
2023-05-14T15:24:17.562Z,27.14
2023-05-14T15:26:46.236Z,27.34
2023-05-14T15:29:14.436Z,27.64
2023-05-14T15:31:43.041Z,27.56
2023-05-14T15:34:11.580Z,27.67
2023-05-14T15:36:40.169Z,27.90
2023-05-14T15:39:10.397Z,28.05
2023-05-14T15:41:38.650Z,28.24
2023-05-14T15:44:07.866Z,28.42
2023-05-14T15:46:38.046Z,28.72
2023-05-14T15:49:06.666Z,28.63
2023-05-14T15:51:35.258Z,28.68
2023-05-14T15:54:06.072Z,28.75
2023-05-14T15:56:34.552Z,28.65
2023-05-14T15:59:03.449Z,28.63
2023-05-14T16:01:32.144Z,28.59
2023-05-14T16:04:00.777Z,28.64
2023-05-14T16:06:28.997Z,28.97
2023-05-14T16:08:57.278Z,28.99
2023-05-14T16:11:25.563Z,28.90
2023-05-14T16:13:53.818Z,29.26
2023-05-14T16:16:23.426Z,29.26
2023-05-14T16:18:51.841Z,29.95
2023-05-14T16:21:20.490Z,30.16
2023-05-14T16:23:48.869Z,30.48
2023-05-14T16:26:17.181Z,30.35
2023-05-14T16:28:45.538Z,30.33
2023-05-14T16:31:15.481Z,30.41
2023-05-14T16:33:43.862Z,30.58
2023-05-14T16:36:12.313Z,30.87
2023-05-14T16:38:48.315Z,31.05
2023-05-14T16:41:29.588Z,31.19
2023-05-14T16:43:57.849Z,31.45
2023-05-14T16:46:28.383Z,31.39
2023-05-14T16:48:56.930Z,31.45
2023-05-14T16:51:25.306Z,31.75
2023-05-14T16:53:55.622Z,31.89
2023-05-14T16:56:24.583Z,32.09
2023-05-14T16:58:53.309Z,32.89
2023-05-14T17:01:21.538Z,32.88
2023-05-14T17:03:49.878Z,32.91
2023-05-14T17:06:17.960Z,33.18
2023-05-14T17:08:46.253Z,33.30
2023-05-14T17:11:14.602Z,33.53
2023-05-14T17:13:59.591Z,33.81
2023-05-14T17:16:27.335Z,33.94
2023-05-14T17:18:57.399Z,33.96
2023-05-14T17:21:25.693Z,33.94
2023-05-14T17:23:53.946Z,34.09
2023-05-14T17:26:24.231Z,34.82
2023-05-14T17:28:52.809Z,34.93
2023-05-14T17:31:22.557Z,35.53
2023-05-14T17:33:50.946Z,35.76
2023-05-14T17:36:19.203Z,35.73
2023-05-14T17:38:47.543Z,36.13
2023-05-14T17:41:17.944Z,36.18
2023-05-14T17:43:46.242Z,36.13
2023-05-14T17:46:14.618Z,37.20
2023-05-14T17:48:43.188Z,37.37
2023-05-14T17:51:11.662Z,37.13
2023-05-14T17:53:39.980Z,37.76
2023-05-14T17:56:08.332Z,38.00
2023-05-14T17:58:38.325Z,38.05
2023-05-14T18:01:06.907Z,38.35
2023-05-14T18:03:35.308Z,38.64
2023-05-14T18:06:03.881Z,38.06
2023-05-14T18:08:34.634Z,38.29
2023-05-14T18:11:03.146Z,39.77
2023-05-14T18:13:31.439Z,40.16
2023-05-14T18:16:01.357Z,40.23
2023-05-14T18:18:29.898Z,40.77
2023-05-14T18:20:58.622Z,41.06
2023-05-14T18:23:27.596Z,41.20
2023-05-14T18:25:57.622Z,41.34
2023-05-14T18:28:26.729Z,40.89
2023-05-14T18:30:55.113Z,41.31
2023-05-14T18:33:23.489Z,40.92
2023-05-14T18:35:51.845Z,41.04
2023-05-14T18:38:20.139Z,41.61
2023-05-14T18:40:49.578Z,42.13
2023-05-14T18:43:19.807Z,42.04
2023-05-14T18:45:48.460Z,42.25
2023-05-14T18:48:16.977Z,42.78
2023-05-14T18:50:45.467Z,42.72
2023-05-14T18:53:13.796Z,43.05
2023-05-14T18:55:42.351Z,43.33
2023-05-14T18:58:10.676Z,43.16
2023-05-14T19:00:39.015Z,43.17
2023-05-14T19:03:08.273Z,43.42
2023-05-14T19:05:36.768Z,43.42
2023-05-14T19:08:06.068Z,43.55
2023-05-14T19:10:35.036Z,43.67
2023-05-14T19:13:03.680Z,43.19
2023-05-14T19:15:32.652Z,43.72
2023-05-14T19:18:01.551Z,43.41
2023-05-14T19:20:29.886Z,43.28
2023-05-14T19:22:58.068Z,43.14
2023-05-14T19:25:26.953Z,42.48
2023-05-14T19:27:57.165Z,43.38
2023-05-14T19:30:25.798Z,43.10
2023-05-14T19:32:54.281Z,43.60
2023-05-14T19:35:23.078Z,43.53
2023-05-14T19:37:51.555Z,44.15
2023-05-14T19:40:19.801Z,44.05
2023-05-14T19:42:48.373Z,43.85
2023-05-14T19:45:17.093Z,44.27
2023-05-14T19:47:45.766Z,44.44
2023-05-14T19:50:14.231Z,43.72
2023-05-14T19:52:42.751Z,43.60
2023-05-14T19:55:11.040Z,44.22
2023-05-14T19:57:50.617Z,44.50
2023-05-14T20:00:26.883Z,44.65
2023-05-14T20:03:01.202Z,44.47
2023-05-14T20:05:34.013Z,45.15
2023-05-14T20:08:09.810Z,44.57
2023-05-14T20:10:41.592Z,44.55
2023-05-14T20:13:09.862Z,44.61
2023-05-14T20:15:39.578Z,44.75
2023-05-14T20:18:08.078Z,46.71
2023-05-14T20:20:36.923Z,47.13
2023-05-14T20:23:05.207Z,46.75
2023-05-14T20:25:33.713Z,46.48
2023-05-14T20:28:02.105Z,46.67
2023-05-14T20:30:30.442Z,47.07
2023-05-14T20:32:59.054Z,47.37
2023-05-14T20:35:27.654Z,47.79
2023-05-14T20:37:56.547Z,47.42
2023-05-14T20:40:25.691Z,47.86
2023-05-14T20:42:53.991Z,47.58
2023-05-14T20:45:22.204Z,48.11
2023-05-14T20:47:50.702Z,48.19
2023-05-14T20:50:19.220Z,48.43
2023-05-14T20:52:47.456Z,48.61
2023-05-14T20:55:15.767Z,47.69
2023-05-14T20:57:44.148Z,48.39
2023-05-14T21:02:41.809Z,48.37
2023-05-14T21:05:10.735Z,48.96
2023-05-14T21:07:39.629Z,48.70
2023-05-14T21:10:10.008Z,48.70
2023-05-14T21:12:38.324Z,48.58
2023-05-14T21:15:07.548Z,49.43
2023-05-14T21:17:35.704Z,49.04
2023-05-14T21:20:04.173Z,49.24
2023-05-14T21:22:32.546Z,49.19
2023-05-14T21:25:00.841Z,50.49
2023-05-14T21:27:29.024Z,49.46
2023-05-14T21:29:57.506Z,49.21
2023-05-14T21:32:26.056Z,49.57
2023-05-14T21:34:54.674Z,50.14
2023-05-14T21:37:23.254Z,49.54
2023-05-14T21:39:51.634Z,50.19
2023-05-14T21:42:21.141Z,49.84
2023-05-14T21:44:49.737Z,49.83
2023-05-14T21:47:18.397Z,50.21
2023-05-14T21:49:46.580Z,50.31
2023-05-14T21:52:14.859Z,50.09
2023-05-14T21:54:43.346Z,50.13
2023-05-14T21:57:11.922Z,49.67
2023-05-14T21:59:40.504Z,50.16
2023-05-14T22:02:08.707Z,50.23
2023-05-14T22:04:36.963Z,50.35
2023-05-14T22:07:05.441Z,50.20
2023-05-14T22:09:38.233Z,50.03
2023-05-14T22:12:07.505Z,50.26
2023-05-14T22:14:36.003Z,49.87
2023-05-14T22:17:05.713Z,49.80
2023-05-14T22:23:11.599Z,50.46
2023-05-14T22:25:39.956Z,51.02
2023-05-14T22:28:08.758Z,50.71
2023-05-14T22:30:39.382Z,50.35
2023-05-14T22:33:17.320Z,50.24
2023-05-14T22:35:45.813Z,50.15
2023-05-14T22:38:14.466Z,50.50
2023-05-14T22:40:42.838Z,50.61
2023-05-14T22:43:11.019Z,50.28
2023-05-14T22:45:39.490Z,50.31
2023-05-14T22:48:08.087Z,50.46
2023-05-14T22:50:37.463Z,50.66
2023-05-14T22:53:05.951Z,50.87
2023-05-14T22:55:34.826Z,50.90
2023-05-14T22:58:03.563Z,51.05
2023-05-14T23:00:31.897Z,51.05
2023-05-14T23:03:00.186Z,51.56
2023-05-14T23:05:28.875Z,51.52
2023-05-14T23:07:57.302Z,51.64
2023-05-14T23:10:25.957Z,52.31
2023-05-14T23:12:54.611Z,51.35
2023-05-14T23:15:25.265Z,52.03
2023-05-14T23:17:53.790Z,51.98
2023-05-14T23:20:22.242Z,52.43
2023-05-14T23:22:50.489Z,51.86
2023-05-14T23:25:18.892Z,51.46
2023-05-14T23:27:48.163Z,52.09
2023-05-14T23:30:16.886Z,52.26
2023-05-14T23:32:45.150Z,52.09
2023-05-14T23:35:14.000Z,52.48
2023-05-14T23:37:49.681Z,51.21
2023-05-14T23:40:18.648Z,51.93
2023-05-14T23:42:47.235Z,51.85
2023-05-14T23:45:15.699Z,51.60
2023-05-14T23:47:44.108Z,51.48
2023-05-14T23:50:12.529Z,51.61
2023-05-14T23:52:40.811Z,51.74
2023-05-14T23:55:09.796Z,52.45
2023-05-14T23:57:38.321Z,51.97
